^^
MeteoGriva-Weather Station Historical Data
Daily Summary for August 22, 2020 Units:  English    Metric   Both
Daily Weekly Monthly Yearly Custom
  High: Low: Average:
Temperature: 53.4 °F 31.1 °F 40.6 °F
Dew Point: 38.7 °F 17.1 °F 28.9 °F
Humidity: 85.9% 29.3% 65%
Wind Speed: 1.1mph 0mph 0mph
Wind Gust: 4.9mph - -
Wind- - SSE
Pressure: 30.6 in 0 in -
Precipitation: 0 in    
Historical Graphs
 
 
Tabular Data for August 22, 2020
Time Temperature Dew Point Pressure Wind Wind Speed Wind Gust Humidity Rainfall Rate (Hourly) solar
00:04 34 °F 28 °F 30.6 in Calm     78.6% 0 in 0 W/m2
00:09 34 °F 28.2 °F 30.6 in Calm     79.2% 0 in 0 W/m2
00:14 34 °F 28.4 °F 30.6 in Calm     80% 0 in 0 W/m2
00:19 34 °F 28.4 °F 30.6 in Calm     80% 0 in 0 W/m2
00:24 34 °F 28.4 °F 30.6 in Calm     80% 0 in 0 W/m2
00:29 34 °F 28.4 °F 30.6 in Calm     79.7% 0 in 0 W/m2
00:34 34.2 °F 28.4 °F 30.6 in Calm     79% 0 in 0 W/m2
00:39 34.2 °F 28.4 °F 30.6 in Calm     79.4% 0 in 0 W/m2
00:44 34 °F 28.4 °F 30.6 in Calm     79.4% 0 in 0 W/m2
00:49 34 °F 28.4 °F 30.6 in Calm     80% 0 in 0 W/m2
00:54 33.6 °F 28 °F 30.6 in SSW 0.2 mph 2.5 mph 80% 0 in 0 W/m2
00:59 33.4 °F 28 °F 30.6 in SW 0.1 mph 2.5 mph 80.2% 0 in 0 W/m2
01:04 33.4 °F 27.9 °F 30.6 in Calm   2.5 mph 80% 0 in 0 W/m2
01:09 33.4 °F 27.9 °F 30.6 in Calm     80% 0 in 0 W/m2
01:14 33.3 °F 27.9 °F 30.6 in Calm   2.5 mph 80.1% 0 in 0 W/m2
01:19 33.4 °F 27.9 °F 30.6 in Calm   2.5 mph 80.1% 0 in 0 W/m2
01:24 33.4 °F 28 °F 30.6 in Calm     80.7% 0 in 0 W/m2
01:29 33.4 °F 28 °F 30.6 in Calm     80.6% 0 in 0 W/m2
01:34 34.2 °F 28.6 °F 30.6 in Calm   2.5 mph 79.8% 0 in 0 W/m2
01:39 34.2 °F 28.6 °F 30.6 in Calm   2.5 mph 80% 0 in 0 W/m2
01:44 34.2 °F 28.6 °F 30.6 in Calm     80% 0 in 0 W/m2
01:49 34 °F 28.4 °F 30.6 in Calm     80% 0 in 0 W/m2
01:54 33.1 °F 27.9 °F 30.6 in Calm     80.9% 0 in 0 W/m2
01:59 33.1 °F 27.7 °F 30.6 in SSW 0.1 mph 2.5 mph 80.2% 0 in 0 W/m2
02:04 33.3 °F 27.5 °F 30.6 in SW 0.2 mph 2.5 mph 79.3% 0 in 0 W/m2
02:09 33.3 °F 27.1 °F 30.6 in Calm     77.9% 0 in 0 W/m2
02:14 33.8 °F 27.1 °F 30.6 in Calm     76.9% 0 in 0 W/m2
02:19 33.8 °F 27.1 °F 30.6 in Calm     76.6% 0 in 0 W/m2
02:24 33.6 °F 27.5 °F 30.6 in Calm     78% 0 in 0 W/m2
02:29 33.4 °F 27.9 °F 30.6 in Calm     79.9% 0 in 0 W/m2
02:34 32.9 °F 27.1 °F 30.6 in Calm     79% 0 in 0 W/m2
02:39 32.7 °F 27.3 °F 30.6 in Calm     80% 0 in 0 W/m2
02:44 32.7 °F 27.5 °F 30.6 in Calm     81% 0 in 0 W/m2
02:49 32.7 °F 27.5 °F 30.6 in Calm     81% 0 in 0 W/m2
02:54 32.4 °F 27.3 °F 30.6 in Calm     81.6% 0 in 0 W/m2
02:59 32.4 °F 27.5 °F 30.6 in Calm     82% 0 in 0 W/m2
03:04 32.2 °F 27.5 °F 30.6 in Calm     82.6% 0 in 0 W/m2
03:09 32.2 °F 27.7 °F 30.6 in Calm     83% 0 in 0 W/m2
03:14 32 °F 27.5 °F 30.6 in Calm     83.2% 0 in 0 W/m2
03:19 32 °F 27.7 °F 30.6 in Calm     84% 0 in 0 W/m2
03:24 32 °F 27.7 °F 30.6 in Calm     84% 0 in 0 W/m2
03:29 32 °F 27.7 °F 30.6 in Calm     83.7% 0 in 0 W/m2
03:34 31.8 °F 27.5 °F 30.6 in Calm     84% 0 in 0 W/m2
03:39 31.8 °F 27.7 °F 30.6 in Calm     84.4% 0 in 0 W/m2
03:44 31.8 °F 27.9 °F 30.6 in Calm     85% 0 in 0 W/m2
03:49 31.8 °F 27.9 °F 30.6 in Calm     85% 0 in 0 W/m2
03:54 31.6 °F 27.7 °F 30.6 in Calm     85% 0 in 0 W/m2
03:59 31.6 °F 27.7 °F 30.6 in Calm     85% 0 in 0 W/m2
04:04 31.6 °F 27.7 °F 30.6 in Calm     84.8% 0 in 0 W/m2
04:09 31.5 °F 27.5 °F 30.6 in Calm     85.1% 0 in 0 W/m2
04:14 31.3 °F 27.3 °F 30.6 in Calm     85.1% 0 in 0 W/m2
04:19 31.5 °F 27.5 °F 30.6 in Calm     85% 0 in 0 W/m2
04:24 31.5 °F 27.5 °F 30.6 in Calm     85% 0 in 0 W/m2
04:29 31.5 °F 27.5 °F 30.6 in Calm     85% 0 in 0 W/m2
04:34 31.5 °F 27.5 °F 30.6 in Calm     85% 0 in 0 W/m2
04:39 31.5 °F 27.5 °F 30.6 in Calm     85% 0 in 0 W/m2
04:44 31.6 °F 27.7 °F 30.6 in Calm     85% 0 in 0 W/m2
04:49 31.6 °F 27.7 °F 30.5 in Calm     85% 0 in 0 W/m2
04:54 31.6 °F 27.7 °F 30.6 in Calm     84.7% 0 in 0 W/m2
04:59 31.8 °F 27.9 °F 30.6 in Calm     85% 0 in 0 W/m2
05:04 31.8 °F 27.9 °F 30.5 in Calm     85% 0 in 0 W/m2
05:09 31.8 °F 27.9 °F 30.5 in Calm     85% 0 in 0 W/m2
05:14 31.6 °F 27.7 °F 30.5 in Calm     85% 0 in 0 W/m2
05:19 31.6 °F 27.7 °F 30.5 in Calm     85% 0 in 0 W/m2
05:24 31.6 °F 27.7 °F 30.5 in Calm     85% 0 in 0 W/m2
05:29 31.6 °F 27.5 °F 30.5 in Calm     84.6% 0 in 0 W/m2
05:34 31.6 °F 27.7 °F 30.5 in Calm     84.8% 0 in 0 W/m2
05:39 31.6 °F 27.7 °F 30.5 in Calm     85% 0 in 0 W/m2
05:44 31.6 °F 27.7 °F 30.5 in Calm     85% 0 in 0 W/m2
05:49 31.6 °F 27.7 °F 30.5 in Calm     85% 0 in 0 W/m2
05:54 31.5 °F 27.5 °F 30.5 in Calm     85.4% 0 in 0 W/m2
05:59 31.1 °F 27.1 °F 30.5 in Calm     85.6% 0 in 0 W/m2
06:04 31.1 °F 27.3 °F 30.5 in Calm     85.9% 0 in 0 W/m2
06:09 31.1 °F 27.1 °F 30.5 in Calm     85.4% 0 in 0 W/m2
06:14 31.1 °F 27.1 °F 30.5 in Calm     85% 0 in 0 W/m2
06:19 31.1 °F 27.1 °F 30.5 in Calm     85% 0 in 0 W/m2
06:24 31.3 °F 27.1 °F 30.5 in Calm     84.6% 0 in 0 W/m2
06:29 31.3 °F 27.1 °F 30.5 in Calm     84.4% 0 in 0 W/m2
06:34 31.5 °F 27.3 °F 30.5 in Calm     84.8% 0 in 0 W/m2
06:39 31.5 °F 27.1 °F 30.5 in Calm     84% 0 in 0 W/m2
06:44 31.5 °F 27.3 °F 30.5 in Calm     84.7% 0 in 0 W/m2
06:49 31.5 °F 27.3 °F 30.5 in Calm     84.4% 0 in 0 W/m2
06:54 31.5 °F 27.1 °F 30.5 in Calm     84.1% 0 in 0 W/m2
06:59 31.6 °F 27.3 °F 30.5 in Calm     84% 0 in 0 W/m2
07:04 31.6 °F 27.3 °F 30.5 in Calm     83.8% 0 in 0 W/m2
07:09 31.6 °F 27.3 °F 30.5 in Calm     83.8% 0 in 0 W/m2
07:14 31.5 °F 27.1 °F 30.5 in Calm     83.7% 0 in 0 W/m2
07:19 31.8 °F 27 °F 30.5 in Calm     82.1% 0 in 0 W/m2
07:24 31.6 °F 26.6 °F 30.5 in Calm     81.1% 0 in 0 W/m2
07:29 31.8 °F 25.9 °F 30.5 in Calm     78.7% 0 in 0 W/m2
07:34 31.8 °F 26.2 °F 30.5 in Calm     79.6% 0 in 0 W/m2
07:39 31.8 °F 26.6 °F 30.5 in Calm     81% 0 in 0 W/m2
07:44 31.8 °F 26.4 °F 30.5 in Calm     80% 0 in 0 W/m2
07:49 31.8 °F 26.6 °F 30.5 in Calm     80.9% 0 in 0 W/m2
07:54 32 °F 26.8 °F 30.5 in Calm     81% 0 in 2 W/m2
07:59 32 °F 27 °F 30.5 in Calm     81.7% 0 in 5 W/m2
08:04 32 °F 26.6 °F 30.5 in Calm     80.2% 0 in 10 W/m2
08:09 32 °F 26.8 °F 30.5 in Calm     80.8% 0 in 16 W/m2
08:14 32.5 °F 27.3 °F 30.5 in Calm     81% 0 in 20 W/m2
08:19 33.4 °F 28 °F 30.5 in Calm     80.2% 0 in 25 W/m2
08:24 33.4 °F 27.9 °F 30.5 in Calm     79.4% 0 in 30 W/m2
08:29 33.8 °F 27.5 °F 30.5 in Calm     77.7% 0 in 34 W/m2
08:34 34.2 °F 27.7 °F 30.5 in Calm     76.7% 0 in 40 W/m2
08:39 34.9 °F 28.4 °F 30.5 in Calm     76.9% 0 in 44 W/m2
08:44 34.9 °F 28.4 °F 30.5 in Calm     77% 0 in 48 W/m2
08:49 34.9 °F 28.4 °F 30.5 in Calm     77% 0 in 51 W/m2
08:54 35.8 °F 28.8 °F 30.5 in Calm     75.2% 0 in 55 W/m2
08:59 38.1 °F 29.5 °F 30.5 in Calm     71.1% 0 in 59 W/m2
09:04 37.9 °F 30.2 °F 30.5 in Calm     73.2% 0 in 62 W/m2
09:09 37.9 °F 30.4 °F 30.5 in Calm     74% 0 in 64 W/m2
09:14 37.9 °F 30 °F 30.5 in Calm     73.1% 0 in 66 W/m2
09:19 38.8 °F 29.8 °F 30.5 in Calm     70.2% 0 in 68 W/m2
09:24 39.2 °F 28.6 °F 30.5 in Calm     65.4% 0 in 70 W/m2
09:29 39.4 °F 29.3 °F 30.5 in Calm     67% 0 in 72 W/m2
09:34 39.2 °F 30.4 °F 30.5 in Calm     70.7% 0 in 74 W/m2
09:39 37.9 °F 29.7 °F 30.5 in Calm     72% 0 in 75 W/m2
09:44 37.9 °F 29.7 °F 30.5 in Calm     72% 0 in 77 W/m2
09:49 37.9 °F 29.7 °F 30.5 in Calm     72% 0 in 78 W/m2
09:54 37.9 °F 29.8 °F 30.5 in Calm     72.7% 0 in 78 W/m2
09:59 38.1 °F 29.7 °F 30.5 in Calm     71.6% 0 in 80 W/m2
10:04 38.3 °F 29.7 °F 0 in Calm     70.9% 0 in 81 W/m2
10:09 38.7 °F 29.7 °F 0 in Calm     69.9% 0 in 82 W/m2
10:14 39 °F 29.8 °F 0 in Calm     69.6% 0 in 82 W/m2
10:19 41 °F 31.6 °F 30.5 in Calm     68.9% 0 in 83 W/m2
10:24 40.8 °F 31.8 °F 30.5 in Calm     70% 0 in 84 W/m2
10:29 40.8 °F 31.6 °F 30.5 in Calm     69.6% 0 in 84 W/m2
10:34 40.8 °F 31.1 °F 30.5 in Calm     68.1% 0 in 85 W/m2
10:39 40.1 °F 31.3 °F 30.5 in Calm     70.3% 0 in 85 W/m2
10:44 40.1 °F 31.5 °F 30.5 in Calm     71.3% 0 in 87 W/m2
10:49 40.3 °F 31.3 °F 30.5 in Calm     70% 0 in 89 W/m2
10:54 40.5 °F 31.5 °F 30.5 in Calm     70.2% 0 in 91 W/m2
10:59 40.6 °F 32 °F 30.5 in Calm     71.2% 0 in 92 W/m2
11:04 40.6 °F 32.4 °F 30.5 in Calm     71.8% 0 in 95 W/m2
11:09 40.8 °F 32 °F 30.5 in Calm     70.8% 0 in 97 W/m2
11:14 41 °F 32.2 °F 30.5 in Calm     70.4% 0 in 99 W/m2
11:19 44.1 °F 34.2 °F 30.5 in Calm   2.5 mph 68.3% 0 in 102 W/m2
11:24 44.4 °F 34 °F 30.5 in Calm     66.7% 0 in 107 W/m2
11:29 44.4 °F 33.8 °F 30.5 in SSE 0.6 mph 4.9 mph 65.7% 0 in 110 W/m2
11:34 44.8 °F 34.2 °F 30.5 in Calm   4.9 mph 66% 0 in 113 W/m2
11:39 45.9 °F 34.5 °F 30.5 in SSE 0.1 mph 4.9 mph 64.8% 0 in 118 W/m2
11:44 45.9 °F 34.7 °F 30.5 in SE 0.2 mph 4.9 mph 64.9% 0 in 123 W/m2
11:49 46 °F 34.7 °F 30.5 in Calm     64.6% 0 in 126 W/m2
11:54 46 °F 34.9 °F 30.5 in Calm   2.5 mph 64.9% 0 in 119 W/m2
11:59 46.6 °F 35.2 °F 30.5 in SSE 0.2 mph 2.5 mph 64.2% 0 in 91 W/m2
12:04 46.8 °F 35.4 °F 30.5 in SE 0.7 mph 4.9 mph 64.6% 0 in 85 W/m2
12:09 46.8 °F 35.2 °F 30.5 in SE 0.2 mph 4.9 mph 63.9% 0 in 85 W/m2
12:14 46.9 °F 35.1 °F 30.5 in Calm   2.5 mph 62.8% 0 in 85 W/m2
12:19 48.2 °F 36 °F 30.5 in Calm     62.4% 0 in 93 W/m2
12:24 48.4 °F 35.8 °F 30.5 in SSE 0.2 mph 2.5 mph 61.7% 0 in 146 W/m2
12:29 48.2 °F 35.8 °F 30.5 in Calm   2.5 mph 62% 0 in 179 W/m2
12:34 48.2 °F 35.8 °F 30.5 in Calm   2.5 mph 62.2% 0 in 189 W/m2
12:39 48.2 °F 36.1 °F 30.5 in SE 1.1 mph 4.9 mph 63% 0 in 199 W/m2
12:44 48 °F 36.7 °F 30.4 in ESE 0.7 mph 4.9 mph 64.4% 0 in 208 W/m2
12:49 47.8 °F 36.5 °F 30.4 in Calm   4.9 mph 64.7% 0 in 213 W/m2
12:54 47.7 °F 36.1 °F 30.4 in East 0.2 mph 4.9 mph 64.1% 0 in 217 W/m2
12:59 47.1 °F 35.8 °F 30.4 in ENE 0.2 mph 4.9 mph 64.7% 0 in 241 W/m2
13:04 46.9 °F 35.4 °F 30.4 in Calm   4.9 mph 64.1% 0 in 253 W/m2
13:09 46.9 °F 35.6 °F 30.4 in Calm   2.5 mph 64.2% 0 in 265 W/m2
13:14 46.9 °F 35.1 °F 30.4 in Calm   2.5 mph 62.8% 0 in 277 W/m2
13:19 48.4 °F 35.6 °F 30.4 in South 0.1 mph 2.5 mph 61.1% 0 in 290 W/m2
13:24 48.7 °F 35.8 °F 30.4 in ESE 0.1 mph 4.9 mph 60.6% 0 in 294 W/m2
13:29 48.7 °F 36 °F 30.4 in SSE 0.1 mph 2.5 mph 61% 0 in 299 W/m2
13:34 48.7 °F 35.6 °F 30.4 in SSE 0.1 mph 2.5 mph 60.1% 0 in 299 W/m2
13:39 49.1 °F 35.8 °F 30.4 in SSE 0.2 mph 2.5 mph 59.9% 0 in 296 W/m2
13:44 49.3 °F 35.8 °F 30.4 in Calm     59.3% 0 in 314 W/m2
13:49 49.3 °F 35.6 °F 30.4 in Calm     59% 0 in 324 W/m2
13:54 49.5 °F 35.6 °F 30.4 in ESE 0.1 mph 4.9 mph 58.8% 0 in 330 W/m2
13:59 50.2 °F 36.1 °F 30.4 in South 0.5 mph 4.9 mph 58.4% 0 in 330 W/m2
14:04 50.4 °F 36.1 °F 30.4 in SSE 0.2 mph 4.9 mph 58% 0 in 329 W/m2
14:09 50.4 °F 36.1 °F 30.4 in Calm   2.5 mph 57.9% 0 in 328 W/m2
14:14 50.5 °F 35.6 °F 30.4 in Calm     56.2% 0 in 328 W/m2
14:19 50.7 °F 36.5 °F 30.4 in Calm     57.7% 0 in 325 W/m2
14:24 50.9 °F 36.5 °F 30.4 in South 0.5 mph 4.9 mph 57.6% 0 in 295 W/m2
14:29 50.9 °F 36.5 °F 30.4 in South 0.1 mph 4.9 mph 57.7% 0 in 291 W/m2
14:34 50.9 °F 36.5 °F 30.4 in Calm     57.5% 0 in 317 W/m2
14:39 51.6 °F 36.9 °F 30.3 in Calm     57.2% 0 in 310 W/m2
14:44 51.8 °F 37 °F 30.3 in Calm     57% 0 in 308 W/m2
14:49 51.8 °F 37 °F 30.3 in Calm     57% 0 in 306 W/m2
14:54 51.8 °F 36.9 °F 30.3 in Calm     56.6% 0 in 300 W/m2
14:59 52.2 °F 36.7 °F 30.3 in East 0.4 mph 4.9 mph 55.4% 0 in 275 W/m2
15:04 52.2 °F 38.3 °F 30.3 in East 0.1 mph 4.9 mph 59.4% 0 in 265 W/m2
15:09 51.6 °F 37.9 °F 30.3 in Calm     59.9% 0 in 268 W/m2
15:14 51.3 °F 37.4 °F 30.3 in Calm     59.2% 0 in 267 W/m2
15:19 50.2 °F 36.9 °F 30.3 in Calm     60% 0 in 262 W/m2
15:24 49.6 °F 36 °F 30.3 in Calm     59% 0 in 258 W/m2
15:29 49.8 °F 36.1 °F 30.3 in Calm     59% 0 in 259 W/m2
15:34 49.8 °F 36.1 °F 30.3 in Calm     59% 0 in 247 W/m2
15:39 51.6 °F 36.5 °F 30.3 in Calm     56.3% 0 in 234 W/m2
15:44 53.4 °F 37.4 °F 30.3 in Calm     54.7% 0 in 235 W/m2
15:49 53.4 °F 37.6 °F 30.3 in Calm     55% 0 in 234 W/m2
15:54 53.2 °F 38.7 °F 30.3 in Calm     57.3% 0 in 230 W/m2
15:59 51.4 °F 37.6 °F 30.3 in Calm     59% 0 in 222 W/m2
16:04 49.5 °F 36.5 °F 30.3 in Calm   2.5 mph 61.1% 0 in 132 W/m2
16:09 49.3 °F 36.7 °F 30.3 in Calm     61.6% 0 in 97 W/m2
16:14 49.1 °F 36.7 °F 30.3 in Calm     62% 0 in 58 W/m2
16:19 48.2 °F 36.1 °F 30.3 in Calm     62.8% 0 in 52 W/m2
16:24 47.5 °F 35.6 °F 30.3 in Calm     63% 0 in 49 W/m2
16:29 47.5 °F 35.8 °F 30.3 in Calm     63.7% 0 in 44 W/m2
16:34 47.5 °F 36 °F 30.3 in Calm     64.4% 0 in 41 W/m2
16:39 46.8 °F 35.8 °F 30.3 in Calm     65% 0 in 38 W/m2
16:44 46 °F 35.4 °F 30.3 in Calm     66.2% 0 in 35 W/m2
16:49 46 °F 35.8 °F 30.3 in Calm     67% 0 in 32 W/m2
16:54 45.9 °F 35.6 °F 30.3 in Calm     67% 0 in 29 W/m2
16:59 45.5 °F 35.4 °F 30.3 in Calm     67.3% 0 in 26 W/m2
17:04 45.1 °F 35.1 °F 30.3 in Calm     67.8% 0 in 24 W/m2
17:09 45.1 °F 35.2 °F 30.3 in Calm     68% 0 in 21 W/m2
17:14 45 °F 35.2 °F 30.3 in Calm     68.1% 0 in 17 W/m2
17:19 44.8 °F 35.1 °F 30.3 in Calm     68.4% 0 in 11 W/m2
17:24 44.2 °F 34.5 °F 30.3 in Calm     68.4% 0 in 8 W/m2
17:29 44.2 °F 34.7 °F 30.3 in Calm     69% 0 in 5 W/m2
17:34 44.1 °F 34.5 °F 30.3 in Calm     68.8% 0 in 2 W/m2
17:39 44.1 °F 34.2 °F 30.3 in Calm     68% 0 in 0 W/m2
17:44 43.7 °F 33.8 °F 30.3 in Calm     68% 0 in 0 W/m2
17:49 43.7 °F 33.3 °F 30.3 in Calm     66.6% 0 in 0 W/m2
17:54 43.9 °F 31.6 °F 30.3 in Calm     61.9% 0 in 0 W/m2
17:59 43.7 °F 32.2 °F 30.3 in Calm     63.9% 0 in 0 W/m2
18:04 43 °F 32.7 °F 30.3 in Calm     66.9% 0 in 0 W/m2
18:09 43 °F 32.9 °F 30.3 in Calm     67.2% 0 in 0 W/m2
18:14 43.2 °F 28.8 °F 30.3 in Calm     57% 0 in 0 W/m2
18:19 43.9 °F 23.9 °F 30.3 in Calm     45% 0 in 0 W/m2
18:24 45.7 °F 22.6 °F 30.3 in Calm     39.7% 0 in 0 W/m2
18:29 45.7 °F 21.2 °F 30.3 in Calm     37.3% 0 in 0 W/m2
18:34 45.9 °F 19.2 °F 30.3 in Calm   2.5 mph 34.1% 0 in 0 W/m2
18:39 46.4 °F 17.8 °F 30.3 in Calm     31.4% 0 in 0 W/m2
18:44 47.7 °F 17.6 °F 30.3 in Calm     30% 0 in 0 W/m2
18:49 47.5 °F 17.1 °F 30.3 in Calm     29.3% 0 in 0 W/m2
18:54 47.5 °F 17.6 °F 30.3 in Calm     30% 0 in 0 W/m2
18:59 47.1 °F 18.1 °F 30.3 in Calm     31.2% 0 in 0 W/m2
19:04 45.5 °F 21.2 °F 30.3 in South 0.4 mph 2.5 mph 38% 0 in 0 W/m2
19:09 45.3 °F 24.8 °F 30.3 in Calm     44.3% 0 in 0 W/m2
19:14 45 °F 24.3 °F 30.3 in Calm     43.9% 0 in 0 W/m2
19:19 44.6 °F 24.1 °F 30.3 in Calm     43.9% 0 in 0 W/m2
19:24 44.1 °F 24.4 °F 30.3 in Calm     45.6% 0 in 0 W/m2
19:29 44.1 °F 23.4 °F 30.3 in Calm     43.6% 0 in 0 W/m2
19:34 44.1 °F 21.9 °F 30.3 in Calm     41.2% 0 in 0 W/m2
19:39 44.1 °F 24.4 °F 30.3 in Calm     45.4% 0 in 0 W/m2
19:44 44.2 °F 26.4 °F 30.3 in Calm     49.3% 0 in 0 W/m2
19:49 44.2 °F 28.2 °F 30.3 in Calm     53.2% 0 in 0 W/m2
19:54 44.1 °F 29.7 °F 30.3 in Calm     56.7% 0 in 0 W/m2
19:59 44.1 °F 30.7 °F 30.3 in Calm     59.2% 0 in 0 W/m2
20:04 44.2 °F 30.6 °F 30.3 in Calm     58.4% 0 in 0 W/m2
20:09 44.1 °F 28.9 °F 30.3 in Calm     55.2% 0 in 0 W/m2
20:14 44.1 °F 26.6 °F 30.3 in Calm     49.9% 0 in 0 W/m2
20:19 44.1 °F 27 °F 30.2 in Calm     50.8% 0 in 0 W/m2
20:24 44.2 °F 28 °F 30.3 in Calm     53% 0 in 0 W/m2
20:29 44.1 °F 27.5 °F 30.3 in Calm     51.8% 0 in 0 W/m2
20:34 44.1 °F 25.7 °F 30.2 in Calm     48.1% 0 in 0 W/m2
20:39 44.1 °F 23.7 °F 30.2 in Calm     44.3% 0 in 0 W/m2
20:44 44.6 °F 23.5 °F 30.2 in SW 0.3 mph 4.9 mph 43% 0 in 0 W/m2
20:49 44.6 °F 23 °F 30.2 in Calm   2.5 mph 42.1% 0 in 0 W/m2
20:54 44.6 °F 23.5 °F 30.2 in SSW 0.1 mph 2.5 mph 43% 0 in 0 W/m2
20:59 44.6 °F 23.5 °F 30.2 in SSW 0.1 mph 2.5 mph 43% 0 in 0 W/m2
21:04 44.4 °F 23 °F 30.3 in Calm     42.4% 0 in 0 W/m2
21:09 44.6 °F 22.5 °F 30.3 in Calm     41.3% 0 in 0 W/m2
21:14 44.6 °F 23 °F 30.3 in Calm     42% 0 in 0 W/m2
21:19 44.6 °F 23.2 °F 30.2 in Calm   2.5 mph 42.3% 0 in 0 W/m2
21:24 45.1 °F 23.5 °F 30.2 in Calm   2.5 mph 42.2% 0 in 0 W/m2
21:29 45.1 °F 23.4 °F 30.2 in Calm     42% 0 in 0 W/m2
21:34 45.1 °F 23 °F 30.2 in Calm     41.4% 0 in 0 W/m2
21:39 45.3 °F 23 °F 30.2 in Calm     41% 0 in 0 W/m2
21:44 45.3 °F 23.4 °F 30.2 in Calm     41.5% 0 in 0 W/m2
21:49 45.3 °F 23.5 °F 30.2 in Calm     42% 0 in 0 W/m2
21:54 45.3 °F 23.5 °F 30.2 in Calm     42% 0 in 0 W/m2
21:59 45.1 °F 23 °F 30.2 in Calm     41.2% 0 in 0 W/m2
22:04 44.6 °F 22.8 °F 30.2 in Calm     41.8% 0 in 0 W/m2
22:09 44.6 °F 22.1 °F 30.2 in Calm     40.8% 0 in 0 W/m2
22:14 44.8 °F 21.7 °F 30.2 in Calm     40% 0 in 0 W/m2
22:19 45 °F 21.6 °F 30.2 in Calm     39% 0 in 0 W/m2
22:24 45.7 °F 21.9 °F 30.2 in Calm     38.6% 0 in 0 W/m2
22:29 45.9 °F 21.4 °F 30.2 in Calm     37.6% 0 in 0 W/m2
22:34 45.9 °F 19.8 °F 30.2 in Calm     34.9% 0 in 0 W/m2
22:39 45.9 °F 20.5 °F 30.2 in Calm     36.1% 0 in 0 W/m2
22:44 45.7 °F 20.3 °F 30.2 in Calm     35.9% 0 in 0 W/m2
22:49 45.7 °F 19.4 °F 30.2 in Calm     34.8% 0 in 0 W/m2
22:54 45.7 °F 20.7 °F 30.2 in WNW 0.2 mph 4.9 mph 36.9% 0 in 0 W/m2
22:59 45.5 °F 20.3 °F 30.2 in Calm   4.9 mph 36.4% 0 in 0 W/m2
23:04 45.5 °F 20.1 °F 30.2 in Calm     36% 0 in 0 W/m2
23:09 45.5 °F 20.1 °F 30.2 in Calm     36% 0 in 0 W/m2
23:14 45.3 °F 20.5 °F 30.2 in Calm     36.8% 0 in 0 W/m2
23:19 45.1 °F 20.8 °F 30.2 in Calm   2.5 mph 37.6% 0 in 0 W/m2
23:24 45 °F 20.5 °F 30.2 in Calm     37.3% 0 in 0 W/m2
23:29 45 °F 20.8 °F 30.2 in Calm     38% 0 in 0 W/m2
23:34 44.8 °F 20.3 °F 30.2 in Calm     37.2% 0 in 0 W/m2
23:39 44.8 °F 20.3 °F 30.2 in Calm     37.4% 0 in 0 W/m2
23:44 44.4 °F 19.4 °F 30.2 in Calm     36.4% 0 in 0 W/m2
23:49 44.2 °F 18.5 °F 30.2 in Calm     35.3% 0 in 0 W/m2
23:54 44.2 °F 18.5 °F 30.2 in Calm     35.3% 0 in 0 W/m2
23:59 44.4 °F 17.6 °F 30.2 in Calm     33.8% 0 in 0 W/m2
Juneau County Weather
Compliments of Weather Underground - 2 mb